Time;durP1;ratioP1;P1;durP2;ratioP2;P2;SDS_P1;SDS_P2;PMS_P1;PMS_P2;Temp;Humidity;BMP_temperature;BMP_pressure;BME280_temperature;BME280_humidity;BME280_pressure;Samples;Min_cycle;Max_cycle;Signal;HPM_P1;HPM_P2
2022/05/22 00:00:32;;;;;;;7.55;2.00;;;11.60;73.60;;;;;;4137052;28;20581;-82
2022/05/22 00:02:53;;;;;;;12.85;1.65;;;11.60;73.60;;;;;;4138396;28;20038;-83
2022/05/22 00:05:17;;;;;;;14.45;1.67;;;11.60;73.50;;;;;;4139029;28;20038;-83
2022/05/22 00:07:38;;;;;;;;;;;11.60;73.40;;;;;;4138777;28;20404;-83
2022/05/22 00:09:43;;;;;;;7.57;1.48;;;11.60;73.50;;;;;;4133984;28;20379;-82
2022/05/22 00:12:06;;;;;;;15.50;2.03;;;11.60;73.20;;;;;;4139693;28;20081;-83
2022/05/22 00:14:27;;;;;;;11.20;1.50;;;11.60;73.10;;;;;;4124659;28;20045;-83
2022/05/22 00:16:48;;;;;;;10.02;1.30;;;11.60;73.20;;;;;;4143343;28;20041;-82
2022/05/22 00:19:12;;;;;;;14.60;1.65;;;11.50;73.10;;;;;;4140266;28;20034;-83
2022/05/22 00:21:27;;;;;;;12.35;1.92;;;11.60;73.10;;;;;;4139874;28;20022;-82
2022/05/22 00:23:48;;;;;;;10.48;1.70;;;11.60;73.20;;;;;;4136291;28;20083;-82
2022/05/22 00:26:09;;;;;;;8.90;1.50;;;11.50;73.10;;;;;;4138454;28;20709;-82
2022/05/22 00:28:30;;;;;;;9.85;1.75;;;11.60;73.20;;;;;;4137761;28;20025;-83
2022/05/22 00:30:50;;;;;;;9.85;1.70;;;11.50;74.00;;;;;;4135889;28;20036;-82
2022/05/22 00:33:11;;;;;;;7.38;1.20;;;11.50;73.20;;;;;;4138302;28;20030;-83
2022/05/22 00:35:32;;;;;;;17.90;1.90;;;11.50;73.20;;;;;;4140648;28;20029;-83
2022/05/22 00:37:52;;;;;;;10.88;1.50;;;11.50;73.30;;;;;;4141255;28;20487;-83
2022/05/22 00:40:13;;;;;;;8.55;1.70;;;11.50;73.30;;;;;;4135883;28;20113;-83
2022/05/22 00:42:35;;;;;;;12.35;1.52;;;11.50;73.30;;;;;;4138365;28;20041;-82
2022/05/22 00:44:56;;;;;;;13.25;1.98;;;11.50;73.30;;;;;;4139407;28;20072;-83
2022/05/22 00:47:16;;;;;;;12.65;1.30;;;11.50;73.30;;;;;;4142244;28;20030;-82
2022/05/22 00:49:41;;;;;;;6.93;1.00;;;11.50;73.30;;;;;;4125813;28;20102;-82
2022/05/22 00:52:17;;;;;;;7.68;1.33;;;11.50;73.30;;;;;;4138447;28;20041;-83
2022/05/22 00:55:07;;;;;;;11.15;1.90;;;11.50;73.30;;;;;;4137972;28;20562;-81
2022/05/22 00:57:39;;;;;;;13.95;1.63;;;11.50;73.40;;;;;;4135543;28;20146;-83
2022/05/22 01:00:05;;;;;;;9.45;1.40;;;11.50;73.30;;;;;;4139133;28;20033;-82
2022/05/22 01:02:06;;;;;;;6.60;1.20;;;11.50;73.30;;;;;;4116923;28;20472;-82
2022/05/22 01:04:14;;;;;;;11.77;1.80;;;11.40;73.20;;;;;;4138942;28;20400;-82
2022/05/22 01:06:19;;;;;;;12.18;1.60;;;11.40;73.30;;;;;;4122568;28;20023;-83
2022/05/22 01:08:20;;;;;;;6.38;1.20;;;11.40;73.30;;;;;;4140771;28;20033;-84
2022/05/22 01:10:21;;;;;;;8.43;1.25;;;11.40;73.40;;;;;;4144056;28;20018;-83
2022/05/22 01:12:23;;;;;;;5.20;1.10;;;11.40;73.40;;;;;;4127800;28;20038;-83
2022/05/22 01:14:26;;;;;;;8.82;1.10;;;11.50;73.50;;;;;;4142408;28;20066;-82
2022/05/22 01:16:27;;;;;;;12.07;1.73;;;11.40;73.40;;;;;;4147243;28;20076;-83
2022/05/22 01:18:28;;;;;;;9.50;1.50;;;11.50;73.50;;;;;;4142135;28;20033;-83
2022/05/22 01:20:29;;;;;;;9.85;1.35;;;11.40;73.50;;;;;;4143457;28;20030;-84
2022/05/22 01:22:29;;;;;;;8.45;1.15;;;11.50;73.60;;;;;;4142700;28;20025;-83
2022/05/22 01:24:30;;;;;;;6.75;1.10;;;11.40;73.50;;;;;;4140853;28;20056;-83
2022/05/22 01:26:31;;;;;;;9.70;1.23;;;11.40;73.50;;;;;;4124011;28;20035;-83
2022/05/22 01:28:32;;;;;;;12.10;1.30;;;11.50;73.60;;;;;;4144350;28;21258;-83
2022/05/22 01:30:32;;;;;;;7.38;1.25;;;11.50;73.70;;;;;;4144163;28;20045;-83
2022/05/22 01:32:34;;;;;;;7.38;1.27;;;11.50;73.70;;;;;;4144428;28;20563;-83
2022/05/22 01:34:36;;;;;;;8.57;1.10;;;11.40;73.70;;;;;;4138098;28;22277;-83
2022/05/22 01:36:37;;;;;;;7.18;1.17;;;11.50;73.80;;;;;;4141055;28;20053;-82
2022/05/22 01:38:38;;;;;;;5.28;1.30;;;11.50;73.80;;;;;;4140726;28;20464;-83
2022/05/22 01:40:39;;;;;;;8.48;1.35;;;11.50;73.80;;;;;;4139395;28;20738;-83
2022/05/22 01:42:42;;;;;;;13.05;1.50;;;11.50;73.90;;;;;;4122502;28;20054;-83
2022/05/22 01:44:43;;;;;;;8.80;1.17;;;11.50;73.90;;;;;;4136111;28;20033;-83
2022/05/22 01:46:43;;;;;;;10.50;1.70;;;11.50;73.90;;;;;;4142488;28;20034;-83
2022/05/22 01:48:44;;;;;;;10.73;1.38;;;11.50;73.90;;;;;;4136219;28;20046;-83
2022/05/22 01:50:45;;;;;;;8.82;1.40;;;11.50;73.90;;;;;;4144067;28;20030;-83
2022/05/22 01:52:46;;;;;;;14.35;1.75;;;11.50;73.90;;;;;;4141666;28;20260;-83
2022/05/22 01:54:47;;;;;;;13.82;1.40;;;11.50;74.00;;;;;;4138157;28;20061;-83
2022/05/22 01:56:47;;;;;;;9.27;1.17;;;11.50;73.90;;;;;;4138204;28;20456;-82
2022/05/22 01:58:48;;;;;;;7.75;1.42;;;11.50;74.00;;;;;;4140063;28;20144;-83
2022/05/22 02:01:10;;;;;;;9.65;1.13;;;11.50;74.00;;;;;;4136042;28;20128;-82
2022/05/22 02:03:31;;;;;;;9.15;1.45;;;11.50;73.90;;;;;;4124493;28;20034;-84
2022/05/22 02:05:33;;;;;;;12.07;1.77;;;11.50;73.80;;;;;;4115730;28;20034;-83
2022/05/22 02:10:13;;;;;;;9.85;1.35;;;11.60;73.90;;;;;;4136545;28;20026;-83
2022/05/22 02:12:33;;;;;;;7.95;1.23;;;11.50;73.90;;;;;;4140725;28;20065;-83
2022/05/22 02:14:54;;;;;;;12.13;1.73;;;11.50;73.90;;;;;;4139895;28;20108;-82
2022/05/22 02:16:55;;;;;;;17.13;1.75;;;11.50;73.90;;;;;;4120955;28;20110;-83
2022/05/22 02:19:16;;;;;;;14.75;1.48;;;11.50;73.90;;;;;;4136167;28;20061;-83
2022/05/22 02:21:37;;;;;;;8.93;1.77;;;11.50;73.90;;;;;;4137387;28;20034;-83
2022/05/22 02:23:57;;;;;;;13.43;1.77;;;11.50;73.90;;;;;;4142550;28;20034;-83
2022/05/22 02:26:18;;;;;;;14.25;1.48;;;11.60;74.00;;;;;;4140912;28;20030;-83
2022/05/22 02:28:39;;;;;;;19.92;1.55;;;11.50;73.90;;;;;;4142629;28;20041;-83
2022/05/22 02:31:02;;;;;;;12.68;1.85;;;11.50;73.90;;;;;;4136502;28;20037;-83
2022/05/22 02:33:22;;;;;;;12.68;1.65;;;11.50;73.90;;;;;;4125846;28;20046;-83
2022/05/22 02:35:43;;;;;;;11.68;1.85;;;11.40;73.90;;;;;;4145731;28;20038;-83
2022/05/22 02:38:04;;;;;;;8.18;1.50;;;11.50;74.00;;;;;;4138261;28;20037;-84
2022/05/22 02:40:28;;;;;;;12.18;1.88;;;11.40;74.00;;;;;;4139885;28;20030;-83
2022/05/22 02:42:51;;;;;;;5.35;1.45;;;11.40;74.10;;;;;;4141690;28;20121;-83
2022/05/22 02:45:12;;;;;;;13.00;1.50;;;11.40;74.10;;;;;;4140335;28;20052;-84
2022/05/22 02:47:34;;;;;;;12.55;1.58;;;11.40;74.20;;;;;;4143073;28;20030;-84
2022/05/22 02:49:54;;;;;;;12.32;2.00;;;11.40;74.20;;;;;;4127577;28;20026;-83
2022/05/22 02:52:15;;;;;;;9.05;1.70;;;11.40;74.30;;;;;;4142917;28;20064;-84
2022/05/22 02:54:35;;;;;;;8.73;2.33;;;11.40;74.30;;;;;;4148996;28;20045;-83
2022/05/22 02:56:56;;;;;;;11.50;1.65;;;11.50;74.40;;;;;;4140081;28;20101;-83
2022/05/22 02:59:17;;;;;;;12.63;1.60;;;11.40;74.40;;;;;;4137760;28;20067;-83
2022/05/22 03:01:37;;;;;;;12.07;2.00;;;11.40;74.40;;;;;;4140037;28;20057;-83
2022/05/22 03:03:58;;;;;;;12.48;2.08;;;11.40;74.40;;;;;;4135883;28;20088;-83
2022/05/22 03:08:58;;;;;;;14.20;2.50;;;11.40;74.40;;;;;;4144964;28;20037;-84
2022/05/22 03:11:19;;;;;;;13.38;2.63;;;11.40;74.50;;;;;;4140378;28;20042;-84
2022/05/22 03:13:39;;;;;;;10.23;1.88;;;11.40;74.50;;;;;;4138877;28;20060;-83
2022/05/22 03:16:00;;;;;;;10.55;2.05;;;11.40;74.70;;;;;;4139607;28;20121;-84
2022/05/22 03:18:20;;;;;;;11.55;2.25;;;11.40;74.80;;;;;;4138523;28;20057;-84
2022/05/22 03:20:41;;;;;;;13.25;2.00;;;11.50;74.90;;;;;;4139848;28;20073;-84
2022/05/22 03:23:02;;;;;;;18.17;2.53;;;11.40;74.90;;;;;;4140393;28;20038;-84
2022/05/22 03:25:22;;;;;;;11.63;2.08;;;11.50;75.00;;;;;;4138804;28;20036;-84
2022/05/22 03:27:43;;;;;;;9.95;2.03;;;11.50;75.00;;;;;;4142197;28;20038;-84
2022/05/22 03:30:05;;;;;;;15.27;2.45;;;11.50;75.10;;;;;;4139681;28;20703;-85
2022/05/22 03:32:26;;;;;;;8.25;2.22;;;11.40;75.10;;;;;;4137817;28;20080;-84
2022/05/22 03:34:46;;;;;;;15.35;2.13;;;11.50;75.20;;;;;;4136573;28;20072;-84
2022/05/22 03:37:07;;;;;;;11.13;2.65;;;11.50;75.20;;;;;;4140137;28;20058;-85
2022/05/22 03:39:28;;;;;;;17.40;2.78;;;11.50;75.20;;;;;;4149767;28;20029;-84
2022/05/22 03:41:49;;;;;;;7.85;1.67;;;11.50;75.20;;;;;;4139722;28;21475;-84
2022/05/22 03:44:10;;;;;;;10.45;1.98;;;11.50;75.20;;;;;;4139277;28;20427;-84
2022/05/22 03:46:31;;;;;;;17.92;2.05;;;11.50;75.10;;;;;;4124083;28;20102;-84
2022/05/22 03:48:52;;;;;;;11.27;1.65;;;11.50;75.10;;;;;;4140595;28;20042;-84
2022/05/22 03:51:12;;;;;;;12.43;2.10;;;11.50;75.10;;;;;;4142460;28;20431;-84
2022/05/22 03:53:33;;;;;;;10.73;2.13;;;11.50;75.20;;;;;;4140166;28;21018;-84
2022/05/22 03:57:36;;;;;;;18.15;2.75;;;11.50;75.20;;;;;;4133659;28;20054;-84
2022/05/22 03:59:41;;;;;;;9.95;1.58;;;11.60;75.30;;;;;;4135531;28;20756;-83
2022/05/22 04:01:42;;;;;;;13.88;2.05;;;11.50;75.30;;;;;;4138090;28;20030;-83
2022/05/22 04:03:43;;;;;;;11.82;2.35;;;11.50;75.30;;;;;;4133792;28;20587;-83
2022/05/22 04:05:43;;;;;;;9.88;2.13;;;11.50;75.30;;;;;;4138869;28;20680;-84
2022/05/22 04:07:46;;;;;;;19.83;2.40;;;11.50;75.30;;;;;;4120601;28;20507;-85
2022/05/22 04:09:47;;;;;;;14.68;2.55;;;11.50;75.40;;;;;;4138940;28;20380;-84
2022/05/22 04:11:47;;;;;;;11.18;1.63;;;11.60;75.40;;;;;;4121790;28;20052;-84
2022/05/22 04:13:48;;;;;;;9.75;2.08;;;11.60;75.40;;;;;;4135279;28;20034;-84
2022/05/22 04:15:49;;;;;;;11.48;2.17;;;11.60;75.50;;;;;;4135302;28;20037;-84
2022/05/22 04:17:49;;;;;;;8.55;1.60;;;11.60;75.50;;;;;;4135443;28;20037;-84
2022/05/22 04:19:50;;;;;;;10.73;2.15;;;11.60;75.60;;;;;;4135327;28;20035;-84
2022/05/22 04:21:51;;;;;;;13.40;1.85;;;11.60;75.60;;;;;;4140509;28;20044;-84
2022/05/22 04:26:11;;;;;;;10.90;1.85;;;11.60;75.60;;;;;;4139131;28;20077;-84
2022/05/22 04:28:12;;;;;;;17.05;2.90;;;11.60;75.70;;;;;;4137686;28;20083;-83
2022/05/22 04:30:17;;;;;;;11.02;1.90;;;11.60;75.70;;;;;;4125529;28;20098;-84
2022/05/22 04:32:29;;;;;;;7.90;1.67;;;11.70;75.70;;;;;;4143050;28;20030;-84
2022/05/22 04:34:42;;;;;;;13.15;1.90;;;11.70;75.70;;;;;;4119565;28;20097;-84
2022/05/22 04:36:43;;;;;;;13.45;2.13;;;11.70;75.60;;;;;;4138150;28;20109;-83
2022/05/22 04:38:56;;;;;;;10.70;1.73;;;11.70;75.60;;;;;;4120117;28;20054;-83
2022/05/22 04:41:17;;;;;;;16.90;2.33;;;11.70;75.50;;;;;;4136759;28;20567;-84
2022/05/22 04:43:37;;;;;;;10.32;1.40;;;11.70;75.50;;;;;;4131706;28;20045;-83
2022/05/22 04:45:59;;;;;;;13.25;2.22;;;11.80;75.50;;;;;;4140750;28;20037;-84
2022/05/22 04:48:21;;;;;;;13.85;1.90;;;11.70;75.40;;;;;;4139019;28;20092;-85
2022/05/22 04:50:45;;;;;;;13.20;2.20;;;11.70;75.40;;;;;;4141888;28;20050;-84
2022/05/22 04:53:06;;;;;;;13.75;2.10;;;11.80;75.50;;;;;;4139177;28;20030;-84
2022/05/22 04:55:26;;;;;;;12.25;1.92;;;11.70;75.40;;;;;;4139714;28;20829;-83
2022/05/22 04:57:47;;;;;;;14.45;1.90;;;11.70;75.40;;;;;;4139023;28;20034;-83
2022/05/22 05:00:10;;;;;;;9.75;1.30;;;11.70;76.10;;;;;;4142100;28;20045;-84
2022/05/22 05:02:30;;;;;;;12.27;1.88;;;11.70;75.40;;;;;;4136017;28;20038;-84
2022/05/22 05:04:57;;;;;;;20.17;2.20;;;11.80;75.50;;;;;;4138354;28;20042;-84
2022/05/22 05:07:18;;;;;;;12.95;2.15;;;11.70;75.50;;;;;;4138433;28;20092;-84
2022/05/22 05:09:38;;;;;;;11.73;1.85;;;11.80;76.20;;;;;;4140307;28;20049;-84
2022/05/22 05:12:05;;;;;;;16.13;1.98;;;11.80;75.40;;;;;;4138575;28;20841;-84
2022/05/22 05:14:25;;;;;;;9.50;1.70;;;11.80;75.40;;;;;;4137193;28;20034;-84
2022/05/22 05:16:46;;;;;;;12.27;1.95;;;11.80;75.60;;;;;;4139212;28;20109;-84
2022/05/22 05:19:06;;;;;;;10.98;1.80;;;11.80;75.50;;;;;;4141245;28;20053;-84
2022/05/22 05:21:27;;;;;;;11.85;1.90;;;11.80;75.50;;;;;;4141567;28;20522;-85
2022/05/22 05:23:48;;;;;;;19.70;2.00;;;11.80;75.50;;;;;;4139375;28;20061;-84
2022/05/22 05:26:09;;;;;;;17.15;1.85;;;11.80;75.60;;;;;;4140515;28;20141;-83
2022/05/22 05:28:30;;;;;;;16.63;2.17;;;11.90;75.80;;;;;;4143813;28;20030;-83
2022/05/22 05:30:51;;;;;;;10.13;2.15;;;11.90;75.80;;;;;;4137752;28;20045;-84
2022/05/22 05:33:12;;;;;;;14.07;2.88;;;11.90;75.70;;;;;;4138364;28;20037;-83
2022/05/22 05:35:32;;;;;;;14.63;1.63;;;11.90;75.70;;;;;;4138764;28;20103;-84
2022/05/22 05:37:53;;;;;;;12.65;1.63;;;11.90;75.80;;;;;;4141285;28;20045;-84
2022/05/22 05:40:14;;;;;;;11.88;1.77;;;12.00;75.90;;;;;;4124464;28;20085;-85
2022/05/22 05:42:36;;;;;;;14.65;1.75;;;12.00;75.80;;;;;;4142948;28;20089;-83
2022/05/22 05:44:57;;;;;;;13.70;1.55;;;12.00;75.80;;;;;;4138442;28;20040;-84
2022/05/22 05:47:17;;;;;;;11.30;1.67;;;12.10;75.70;;;;;;4140839;28;20578;-83
2022/05/22 05:49:18;;;;;;;15.35;1.80;;;12.10;75.70;;;;;;4147772;28;20022;-84
2022/05/22 05:51:40;;;;;;;15.50;1.95;;;12.10;75.80;;;;;;4148994;28;20046;-84
2022/05/22 05:54:00;;;;;;;13.40;2.03;;;12.20;75.60;;;;;;4128727;28;20026;-84
2022/05/22 05:56:22;;;;;;;15.43;1.90;;;12.20;75.50;;;;;;4140107;28;20384;-84
2022/05/22 05:58:42;;;;;;;16.42;2.10;;;12.20;75.30;;;;;;4143194;28;20029;-84
2022/05/22 06:01:03;;;;;;;19.02;2.15;;;12.20;75.10;;;;;;4139419;28;20029;-84
2022/05/22 06:03:23;;;;;;;13.85;1.50;;;12.30;75.00;;;;;;4128404;28;20043;-84
2022/05/22 06:05:44;;;;;;;10.57;1.55;;;12.30;74.90;;;;;;4144546;28;20069;-84
2022/05/22 06:08:08;;;;;;;14.50;2.42;;;12.30;74.80;;;;;;4138497;28;20042;-83
2022/05/22 06:10:28;;;;;;;14.38;2.58;;;12.30;74.70;;;;;;4120474;28;20061;-84
2022/05/22 06:12:49;;;;;;;11.93;1.77;;;12.30;74.60;;;;;;4148031;28;20057;-83
2022/05/22 06:15:10;;;;;;;9.63;1.40;;;12.30;74.40;;;;;;4143762;28;20026;-83
2022/05/22 06:17:36;;;;;;;17.23;2.22;;;12.40;74.30;;;;;;4127852;28;20038;-84
2022/05/22 06:19:55;;;;;;;8.30;1.50;;;12.40;74.30;;;;;;4127105;28;20771;-83
2022/05/22 06:22:16;;;;;;;13.27;1.48;;;12.50;74.20;;;;;;4137696;28;20032;-83
2022/05/22 06:24:37;;;;;;;14.80;1.67;;;12.40;74.20;;;;;;4141831;28;20064;-85
2022/05/22 06:26:58;;;;;;;15.40;2.00;;;12.50;74.10;;;;;;4143297;28;20068;-84
2022/05/22 06:29:18;;;;;;;12.77;1.90;;;12.50;74.10;;;;;;4139996;28;20049;-84
2022/05/22 06:31:39;;;;;;;12.70;1.60;;;12.40;73.90;;;;;;4135188;28;20053;-84
2022/05/22 06:34:00;;;;;;;13.30;1.52;;;12.50;74.10;;;;;;4142842;28;20053;-84
2022/05/22 06:36:22;;;;;;;14.20;2.40;;;12.50;74.10;;;;;;4140471;28;20125;-85
2022/05/22 06:41:22;;;;;;;9.60;1.60;;;12.60;74.00;;;;;;4139591;28;20394;-83
2022/05/22 06:43:46;;;;;;;13.85;1.73;;;12.60;73.90;;;;;;4134017;28;20038;-83
2022/05/22 06:46:07;;;;;;;6.85;1.60;;;12.60;73.80;;;;;;4135304;28;20029;-83
2022/05/22 06:48:27;;;;;;;10.38;1.92;;;12.60;73.70;;;;;;4141852;28;20413;-84
2022/05/22 06:50:48;;;;;;;10.35;1.73;;;12.70;73.60;;;;;;4135976;28;20042;-84
2022/05/22 06:52:49;;;;;;;12.02;1.95;;;12.70;73.50;;;;;;4142100;28;20068;-84
2022/05/22 06:54:51;;;;;;;12.05;1.73;;;12.70;73.50;;;;;;4142253;28;20085;-84
2022/05/22 06:57:15;;;;;;;8.88;1.50;;;12.80;73.70;;;;;;4132902;28;20037;-85
2022/05/22 06:59:36;;;;;;;14.52;2.08;;;12.80;73.40;;;;;;4139852;28;20504;-84
2022/05/22 07:01:38;;;;;;;8.88;1.70;;;12.80;73.00;;;;;;4102975;28;20524;-84
2022/05/22 07:03:58;;;;;;;10.25;1.73;;;12.90;72.80;;;;;;4136480;28;22005;-85
2022/05/22 07:06:19;;;;;;;12.00;1.45;;;12.80;72.50;;;;;;4133456;28;20387;-86
2022/05/22 07:08:40;;;;;;;10.18;1.73;;;12.90;72.40;;;;;;4134339;28;20041;-86
2022/05/22 07:13:43;;;;;;;14.77;2.03;;;12.90;72.10;;;;;;4137062;28;20040;-85
2022/05/22 07:16:13;;;;;;;;;;;12.90;71.90;;;;;;4136150;28;20113;-83
2022/05/22 07:18:33;;;;;;;11.93;1.60;;;13.00;71.70;;;;;;4134397;28;19953;-84
2022/05/22 07:20:54;;;;;;;9.25;1.60;;;13.00;71.70;;;;;;4134690;28;20033;-85
2022/05/22 07:23:15;;;;;;;12.43;1.35;;;13.00;71.60;;;;;;4115931;28;20572;-85
2022/05/22 07:25:37;;;;;;;10.65;1.90;;;13.10;71.70;;;;;;4130569;28;20030;-85
2022/05/22 07:27:57;;;;;;;11.35;1.52;;;13.10;71.30;;;;;;4136003;28;20038;-84
2022/05/22 07:30:18;;;;;;;16.42;1.80;;;13.10;71.00;;;;;;4138557;28;20042;-85
2022/05/22 07:32:40;;;;;;;11.70;2.10;;;13.10;71.70;;;;;;4123796;28;20065;-85
2022/05/22 07:35:01;;;;;;;12.68;1.48;;;13.20;71.00;;;;;;4133543;28;20049;-86
2022/05/22 07:37:22;;;;;;;9.13;1.20;;;13.20;71.00;;;;;;4126012;28;20062;-86
2022/05/22 07:39:43;;;;;;;8.75;1.35;;;13.30;71.10;;;;;;4134883;28;20030;-85
2022/05/22 07:42:05;;;;;;;13.18;1.92;;;13.30;70.90;;;;;;4122533;28;20140;-85
2022/05/22 07:44:26;;;;;;;11.77;1.80;;;13.40;70.90;;;;;;4132334;28;20041;-84
2022/05/22 07:46:45;;;;;;;9.57;1.40;;;13.40;70.80;;;;;;4137916;28;20165;-84
2022/05/22 07:49:06;;;;;;;12.13;2.08;;;13.40;70.80;;;;;;4144381;28;20069;-82
2022/05/22 07:51:27;;;;;;;12.75;1.60;;;13.50;70.80;;;;;;4140342;28;20041;-84
2022/05/22 07:53:50;;;;;;;11.90;1.50;;;13.50;70.10;;;;;;4141892;28;20072;-83
2022/05/22 07:56:13;;;;;;;8.27;1.20;;;13.60;69.90;;;;;;4141239;28;20030;-83
2022/05/22 07:58:34;;;;;;;7.82;1.38;;;13.60;69.60;;;;;;4137493;28;20030;-84
2022/05/22 08:00:57;;;;;;;11.15;1.77;;;13.70;69.30;;;;;;4116664;28;20259;-83
2022/05/22 08:03:19;;;;;;;12.48;1.52;;;13.70;68.70;;;;;;4137701;28;20044;-85
2022/05/22 08:05:41;;;;;;;17.38;2.58;;;13.70;68.30;;;;;;4131183;28;20076;-83
2022/05/22 08:08:03;;;;;;;7.03;1.30;;;13.80;68.20;;;;;;4137961;28;20191;-84
2022/05/22 08:10:23;;;;;;;7.70;1.65;;;13.80;68.10;;;;;;4127282;28;20041;-83
2022/05/22 08:12:49;;;;;;;8.73;1.13;;;13.80;68.10;;;;;;4140963;28;20042;-84
2022/05/22 08:15:12;;;;;;;12.57;1.63;;;13.90;67.60;;;;;;4142010;28;20053;-84
2022/05/22 08:17:36;;;;;;;12.00;1.52;;;13.90;67.40;;;;;;4139183;28;20489;-84
2022/05/22 08:19:56;;;;;;;8.77;1.50;;;14.00;67.30;;;;;;4126834;28;20034;-84
2022/05/22 08:22:18;;;;;;;12.10;1.58;;;14.00;66.80;;;;;;4137704;28;20042;-84
2022/05/22 08:24:38;;;;;;;14.60;1.90;;;14.10;66.30;;;;;;4138005;28;20392;-84
2022/05/22 08:27:00;;;;;;;10.98;1.52;;;14.10;66.00;;;;;;4125801;28;20154;-85
2022/05/22 08:29:21;;;;;;;15.88;1.77;;;14.20;66.10;;;;;;4142496;28;20033;-84
2022/05/22 08:31:41;;;;;;;6.63;1.35;;;14.20;66.20;;;;;;4119941;28;20062;-84
2022/05/22 08:34:02;;;;;;;8.32;1.40;;;14.30;65.90;;;;;;4125762;28;20037;-83
2022/05/22 08:36:23;;;;;;;7.00;1.50;;;14.30;65.50;;;;;;4138113;28;20034;-83
2022/05/22 08:38:42;;;;;;;10.70;1.55;;;14.40;65.10;;;;;;4135070;28;20137;-82
2022/05/22 08:41:21;;;;;;;8.40;1.27;;;14.40;65.00;;;;;;4139496;28;20613;-85
2022/05/22 08:44:00;;;;;;;13.52;1.25;;;14.50;64.10;;;;;;4124685;28;20045;-83
2022/05/22 08:46:36;;;;;;;8.68;1.35;;;14.50;63.60;;;;;;4140714;28;20040;-84
2022/05/22 08:48:58;;;;;;;12.90;1.35;;;14.50;63.20;;;;;;4139211;28;20056;-84
2022/05/22 08:51:27;;;;;;;6.82;1.35;;;14.60;63.40;;;;;;4141083;28;20041;-83
2022/05/22 08:53:53;;;;;;;8.82;1.70;;;14.60;63.00;;;;;;4140301;28;20075;-83
2022/05/22 08:59:29;;;;;;;13.18;1.85;;;14.60;62.50;;;;;;4139325;28;20038;-83
2022/05/22 09:02:14;;;;;;;10.88;1.42;;;14.60;62.10;;;;;;4139053;28;20037;-83
2022/05/22 09:04:42;;;;;;;10.35;1.50;;;14.60;61.90;;;;;;4133506;28;20582;-83
2022/05/22 09:07:04;;;;;;;9.07;1.33;;;14.60;61.60;;;;;;4138243;28;20428;-84
2022/05/22 09:09:28;;;;;;;18.65;2.05;;;14.60;61.50;;;;;;4141846;28;20395;-83
2022/05/22 09:12:05;;;;;;;12.27;1.77;;;14.70;61.90;;;;;;4138156;28;20554;-83
2022/05/22 09:14:42;;;;;;;8.73;1.60;;;14.70;62.10;;;;;;4138201;28;20151;-85
2022/05/22 09:17:11;;;;;;;8.15;1.40;;;14.70;60.40;;;;;;4139469;28;20140;-84
2022/05/22 09:20:01;;;;;;;9.10;1.40;;;14.70;60.20;;;;;;4139587;28;21069;-84
2022/05/22 09:22:47;;;;;;;11.27;1.90;;;14.80;60.50;;;;;;4136383;28;20098;-85
2022/05/22 09:25:29;;;;;;;8.52;1.58;;;14.90;61.00;;;;;;4144481;28;20048;-84
2022/05/22 09:28:29;;;;;;;9.15;1.73;;;15.00;60.60;;;;;;4144592;28;20096;-85
2022/05/22 09:30:54;;;;;;;12.02;1.70;;;15.10;59.60;;;;;;4142898;28;20110;-84
2022/05/22 09:33:35;;;;;;;9.27;1.63;;;15.10;59.80;;;;;;4145967;28;20040;-85
2022/05/22 09:36:00;;;;;;;13.65;1.95;;;15.20;58.80;;;;;;4139181;28;20088;-83
2022/05/22 09:38:41;;;;;;;13.82;2.17;;;15.30;59.30;;;;;;4126739;28;20071;-84
2022/05/22 09:41:10;;;;;;;11.93;1.63;;;15.40;58.10;;;;;;4140416;28;21052;-84
2022/05/22 09:43:45;;;;;;;9.20;1.20;;;15.50;58.30;;;;;;4139006;28;20408;-83
2022/05/22 09:46:33;;;;;;;11.88;2.28;;;15.60;58.00;;;;;;4118624;28;21063;-84
2022/05/22 09:49:26;;;;;;;8.32;1.73;;;15.70;58.20;;;;;;4138162;28;20053;-85
2022/05/22 09:51:52;;;;;;;6.88;1.27;;;15.80;57.90;;;;;;4138999;28;20044;-83
2022/05/22 09:54:28;;;;;;;9.43;1.73;;;15.90;57.20;;;;;;4137547;28;20985;-85
2022/05/22 09:57:05;;;;;;;8.80;1.70;;;15.90;56.40;;;;;;4141063;28;20045;-85
2022/05/22 09:59:45;;;;;;;16.00;1.85;;;15.90;56.60;;;;;;4141794;28;20397;-84
2022/05/22 10:02:14;;;;;;;9.00;1.50;;;15.90;56.70;;;;;;4137956;28;20060;-85
2022/05/22 10:05:22;;;;;;;9.65;1.73;;;15.90;56.50;;;;;;4135578;28;20045;-85
2022/05/22 10:07:58;;;;;;;8.82;1.55;;;15.90;56.80;;;;;;4080921;28;20054;-84
2022/05/22 10:10:26;;;;;;;14.27;1.63;;;15.90;57.60;;;;;;4086549;28;20171;-85
2022/05/22 10:12:54;;;;;;;6.63;1.42;;;16.00;56.50;;;;;;4103980;28;20398;-85
2022/05/22 10:15:32;;;;;;;11.90;1.33;;;16.00;56.60;;;;;;4106427;28;20038;-84
2022/05/22 10:18:03;;;;;;;7.45;1.38;;;16.00;56.00;;;;;;4104141;28;20050;-85
2022/05/22 10:20:28;;;;;;;5.38;1.08;;;16.10;55.90;;;;;;4092983;28;20053;-84
2022/05/22 10:23:20;;;;;;;8.30;1.20;;;16.10;55.30;;;;;;4107100;28;20085;-84
2022/05/22 10:25:45;;;;;;;8.30;1.17;;;16.10;54.80;;;;;;4095641;28;20070;-84
2022/05/22 10:28:22;;;;;;;11.27;1.77;;;16.10;54.80;;;;;;4105958;28;20033;-85
2022/05/22 10:30:58;;;;;;;10.38;1.33;;;16.10;55.00;;;;;;4102213;28;20041;-85
2022/05/22 10:33:32;;;;;;;11.23;1.52;;;16.20;54.80;;;;;;4103423;28;20069;-84
2022/05/22 10:36:17;;;;;;;;;;;16.30;53.90;;;;;;4109243;28;20062;-85
2022/05/22 10:38:51;;;;;;;;;;;16.40;53.90;;;;;;4089290;28;20016;-86
2022/05/22 10:44:09;;;;;;;8.00;1.25;;;16.60;54.00;;;;;;4128529;28;20049;-85
2022/05/22 10:46:28;;;;;;;;;;;16.70;53.90;;;;;;4135919;28;20556;-87
2022/05/22 10:48:50;;;;;;;7.18;1.33;;;16.80;54.40;;;;;;4144987;28;19925;-86
2022/05/22 10:51:12;;;;;;;6.63;1.30;;;16.90;53.80;;;;;;4144029;28;20048;-85
2022/05/22 10:53:40;;;;;;;9.07;1.65;;;16.90;53.50;;;;;;4122404;28;20057;-83
2022/05/22 10:56:02;;;;;;;10.27;1.50;;;17.00;52.80;;;;;;4127266;28;20049;-86
2022/05/22 10:58:29;;;;;;;8.60;1.10;;;17.10;52.90;;;;;;4131022;28;20037;-85
2022/05/22 11:00:57;;;;;;;7.05;1.15;;;17.20;52.70;;;;;;4134268;28;20044;-85
2022/05/22 11:03:16;;;;;;;5.55;1.48;;;17.30;51.60;;;;;;4140092;28;20094;-85
2022/05/22 11:05:36;;;;;;;9.45;1.35;;;17.30;51.10;;;;;;4127265;28;20639;-85
2022/05/22 11:07:57;;;;;;;7.75;1.17;;;17.40;50.40;;;;;;4127854;28;20102;-85
2022/05/22 11:10:20;;;;;;;6.18;1.20;;;17.40;50.40;;;;;;4112511;28;20397;-84
2022/05/22 11:12:40;;;;;;;3.60;1.20;;;17.40;49.50;;;;;;4127613;28;20053;-84
2022/05/22 11:15:27;;;;;;;11.65;1.08;;;17.40;50.00;;;;;;4127648;28;20041;-85
2022/05/22 11:17:48;;;;;;;9.18;1.40;;;17.40;49.30;;;;;;4135384;28;20061;-84
2022/05/22 11:20:25;;;;;;;5.07;1.08;;;17.30;49.90;;;;;;4117438;28;20178;-85
2022/05/22 11:23:03;;;;;;;6.88;1.23;;;17.30;49.80;;;;;;4128478;28;20115;-86
2022/05/22 11:25:34;;;;;;;8.15;1.45;;;17.30;50.20;;;;;;4134942;28;20052;-86
2022/05/22 11:27:59;;;;;;;5.60;1.00;;;17.30;50.50;;;;;;4135171;28;20037;-85
2022/05/22 11:30:41;;;;;;;4.93;1.02;;;17.30;50.80;;;;;;4136357;28;20044;-83
2022/05/22 11:33:26;;;;;;;7.75;1.58;;;17.30;50.60;;;;;;4134497;28;20767;-85
2022/05/22 11:35:55;;;;;;;5.13;0.90;;;17.30;50.60;;;;;;4128003;28;20442;-85
2022/05/22 11:38:40;;;;;;;5.28;1.17;;;17.40;49.80;;;;;;4123157;28;20045;-84
2022/05/22 11:41:21;;;;;;;7.47;1.45;;;17.50;49.30;;;;;;4141911;28;20391;-85
2022/05/22 11:44:13;;;;;;;8.88;1.45;;;17.50;49.00;;;;;;4134346;28;20057;-84
2022/05/22 11:46:54;;;;;;;5.30;1.15;;;17.60;49.40;;;;;;4148867;28;20037;-85
2022/05/22 11:49:34;;;;;;;5.88;1.17;;;17.60;50.10;;;;;;4128675;28;20088;-85
2022/05/22 11:55:40;;;;;;;7.45;1.33;;;17.60;49.50;;;;;;4136864;28;21169;-86
2022/05/22 11:58:18;;;;;;;8.48;1.42;;;17.60;49.40;;;;;;4143385;28;20033;-86
2022/05/22 12:00:46;;;;;;;5.95;0.98;;;17.60;49.50;;;;;;4142269;28;20041;-86
2022/05/22 12:03:31;;;;;;;4.82;0.93;;;17.60;49.60;;;;;;4133611;28;20078;-85
2022/05/22 12:06:08;;;;;;;4.70;1.17;;;17.70;49.60;;;;;;4140274;28;20144;-85
2022/05/22 12:08:51;;;;;;;3.72;1.05;;;17.70;50.00;;;;;;4140006;28;20069;-86
2022/05/22 12:11:22;;;;;;;7.95;1.00;;;17.80;49.90;;;;;;4138783;28;20092;-84
2022/05/22 12:13:57;;;;;;;6.90;1.15;;;17.90;49.50;;;;;;4136711;28;20045;-84
2022/05/22 12:16:21;;;;;;;3.05;0.77;;;18.00;48.30;;;;;;4141505;28;20037;-84
2022/05/22 12:19:00;;;;;;;7.20;1.13;;;18.00;48.40;;;;;;4142977;28;20040;-85
2022/05/22 12:22:06;;;;;;;5.65;1.30;;;18.00;48.00;;;;;;4150161;28;20077;-84
2022/05/22 12:24:28;;;;;;;4.22;1.10;;;18.00;47.60;;;;;;4140865;28;20076;-85
2022/05/22 12:26:50;;;;;;;8.10;1.20;;;17.90;47.80;;;;;;4128181;28;20061;-85
2022/05/22 12:29:24;;;;;;;5.55;0.80;;;17.90;48.10;;;;;;4132699;28;20049;-86
2022/05/22 12:31:53;;;;;;;4.30;0.80;;;17.80;47.90;;;;;;4140174;28;20498;-85
2022/05/22 12:34:21;;;;;;;7.30;0.77;;;17.80;47.80;;;;;;4136381;28;20557;-85
2022/05/22 12:36:54;;;;;;;5.43;1.05;;;17.70;48.00;;;;;;4142036;28;20045;-86